Time;durP1;ratioP1;P1;durP2;ratioP2;P2;SDS_P1;SDS_P2;PMS_P1;PMS_P2;Temp;Humidity;BMP_temperature;BMP_pressure;BME280_temperature;BME280_humidity;BME280_pressure;Samples;Min_cycle;Max_cycle;Signal;HPM_P1;HPM_P2
2022/07/15 00:02:11;;;;;;;1.27;1.17;;;14.50;99.90;;;;;;5012081;28;20196;-73
2022/07/15 00:04:37;;;;;;;1.50;1.10;;;14.50;99.90;;;;;;5011885;28;20651;-73
2022/07/15 00:07:03;;;;;;;1.30;1.20;;;14.50;99.90;;;;;;5011976;28;20188;-73
2022/07/15 00:12:13;;;;;;;1.10;1.00;;;14.40;99.90;;;;;;5012263;28;20773;-72
2022/07/15 00:14:39;;;;;;;4.30;1.10;;;14.40;99.90;;;;;;5011646;28;20407;-72
2022/07/15 00:17:06;;;;;;;2.83;1.57;;;14.30;99.90;;;;;;5011620;28;20423;-73
2022/07/15 00:19:33;;;;;;;2.37;1.40;;;14.20;99.90;;;;;;5011935;28;20169;-73
2022/07/15 00:21:58;;;;;;;1.50;1.40;;;14.20;99.90;;;;;;5011725;28;20588;-72
2022/07/15 00:24:24;;;;;;;1.90;1.67;;;14.20;99.90;;;;;;5011717;28;20403;-72
2022/07/15 00:26:50;;;;;;;1.00;0.77;;;14.10;99.90;;;;;;5011616;28;20195;-72
2022/07/15 00:29:15;;;;;;;0.93;0.90;;;14.10;99.90;;;;;;5011740;28;20251;-72
2022/07/15 00:31:41;;;;;;;2.13;1.40;;;14.20;99.90;;;;;;5011508;28;20218;-73
2022/07/15 00:34:06;;;;;;;1.40;1.30;;;14.10;99.90;;;;;;5011601;28;20173;-72
2022/07/15 00:36:32;;;;;;;1.30;1.10;;;14.10;99.90;;;;;;5011613;28;20191;-73
2022/07/15 00:38:58;;;;;;;0.80;0.80;;;14.10;99.90;;;;;;5011633;28;20169;-73
2022/07/15 00:41:23;;;;;;;3.00;0.90;;;14.20;99.90;;;;;;5011358;28;20289;-73
2022/07/15 00:43:49;;;;;;;0.80;0.80;;;14.10;99.90;;;;;;5011126;28;20196;-72
2022/07/15 00:46:20;;;;;;;2.23;1.20;;;14.10;99.90;;;;;;5010792;28;20635;-73
2022/07/15 00:48:46;;;;;;;1.03;0.87;;;14.10;99.90;;;;;;5011053;28;20188;-73
2022/07/15 00:51:12;;;;;;;3.30;1.53;;;14.00;99.90;;;;;;5010933;28;20434;-73
2022/07/15 00:53:39;;;;;;;2.70;0.80;;;14.10;99.90;;;;;;5011346;28;20824;-74
2022/07/15 00:56:08;;;;;;;1.20;1.07;;;14.00;99.90;;;;;;5014931;28;20202;-73
2022/07/15 00:58:37;;;;;;;1.10;0.90;;;14.00;99.90;;;;;;5014755;28;20510;-73
2022/07/15 01:01:06;;;;;;;4.07;1.40;;;13.90;99.90;;;;;;5014719;28;20937;-74
2022/07/15 01:03:32;;;;;;;2.07;1.00;;;13.90;99.90;;;;;;5014496;28;20818;-74
2022/07/15 01:05:58;;;;;;;1.10;1.00;;;13.80;99.90;;;;;;5014897;28;20506;-74
2022/07/15 01:08:25;;;;;;;1.77;1.30;;;13.80;99.90;;;;;;5015066;28;20187;-72
2022/07/15 01:10:51;;;;;;;1.73;1.10;;;13.70;99.90;;;;;;5014508;28;20759;-74
2022/07/15 01:13:19;;;;;;;2.63;1.10;;;13.70;99.90;;;;;;5015011;28;20697;-74
2022/07/15 01:15:45;;;;;;;1.10;1.00;;;13.70;99.90;;;;;;5014677;28;20462;-74
2022/07/15 01:18:11;;;;;;;1.10;0.97;;;13.60;99.90;;;;;;5014896;28;20407;-74
2022/07/15 01:20:40;;;;;;;1.13;0.93;;;13.60;99.90;;;;;;5014562;28;20411;-74
2022/07/15 01:23:06;;;;;;;1.70;1.40;;;13.50;99.90;;;;;;5014228;28;20188;-73
2022/07/15 01:25:32;;;;;;;0.90;0.80;;;13.50;99.90;;;;;;5014321;28;20404;-73
2022/07/15 01:27:58;;;;;;;1.70;1.30;;;13.50;99.90;;;;;;5014188;28;20176;-72
2022/07/15 01:30:24;;;;;;;1.67;1.10;;;13.50;99.90;;;;;;5014128;28;20965;-72
2022/07/15 01:32:49;;;;;;;4.90;1.27;;;13.50;99.90;;;;;;5014126;28;20558;-72
2022/07/15 01:35:15;;;;;;;1.90;1.33;;;13.50;99.90;;;;;;5013906;28;20295;-73
2022/07/15 01:37:41;;;;;;;1.03;0.93;;;13.40;99.90;;;;;;5014418;28;20539;-73
2022/07/15 01:40:07;;;;;;;2.60;1.43;;;13.40;99.90;;;;;;5013976;28;20752;-72
2022/07/15 01:42:33;;;;;;;2.87;0.90;;;13.30;99.90;;;;;;5013867;28;20287;-73
2022/07/15 01:44:59;;;;;;;2.50;0.83;;;13.30;99.90;;;;;;5013844;28;20422;-73
2022/07/15 01:47:24;;;;;;;1.80;1.10;;;13.40;99.90;;;;;;5014061;28;20242;-73
2022/07/15 01:49:50;;;;;;;2.80;1.10;;;13.40;99.90;;;;;;5013852;28;20399;-73
2022/07/15 01:52:15;;;;;;;1.60;1.10;;;13.30;99.90;;;;;;5013553;28;20255;-72
2022/07/15 01:54:41;;;;;;;0.83;0.83;;;13.30;99.90;;;;;;5013502;28;20175;-73
2022/07/15 01:57:07;;;;;;;2.30;1.07;;;13.30;99.90;;;;;;5011603;28;20273;-73
2022/07/15 01:59:32;;;;;;;0.77;0.77;;;13.30;99.90;;;;;;5012000;28;20168;-74
2022/07/15 02:01:58;;;;;;;1.57;1.30;;;13.20;99.90;;;;;;5012667;28;20179;-73
2022/07/15 02:04:24;;;;;;;4.80;1.27;;;13.20;99.90;;;;;;5013058;28;20168;-71
2022/07/15 02:06:50;;;;;;;1.27;1.17;;;13.20;99.90;;;;;;5011652;28;20420;-73
2022/07/15 02:09:16;;;;;;;1.40;1.20;;;13.10;99.90;;;;;;5012427;28;20400;-73
2022/07/15 02:11:42;;;;;;;1.10;1.00;;;13.10;99.90;;;;;;5012299;28;20403;-73
2022/07/15 02:14:07;;;;;;;2.00;1.20;;;13.10;99.90;;;;;;5012464;28;20172;-73
2022/07/15 02:16:35;;;;;;;1.10;1.00;;;13.10;99.90;;;;;;5012288;28;20199;-73
2022/07/15 02:19:00;;;;;;;2.00;1.70;;;13.10;99.90;;;;;;5012582;28;20165;-74
2022/07/15 02:21:26;;;;;;;2.60;1.20;;;13.00;99.90;;;;;;5012510;28;20433;-73
2022/07/15 02:23:57;;;;;;;6.10;1.27;;;13.00;99.90;;;;;;5012363;28;20658;-73
2022/07/15 02:26:23;;;;;;;1.70;1.27;;;13.00;99.90;;;;;;5012057;28;20423;-73
2022/07/15 02:28:48;;;;;;;1.40;1.13;;;13.00;99.90;;;;;;5012218;28;20491;-73
2022/07/15 02:31:14;;;;;;;2.07;1.27;;;13.00;99.90;;;;;;5012244;28;20898;-73
2022/07/15 02:33:41;;;;;;;3.27;1.47;;;13.00;99.90;;;;;;5010798;28;20183;-74
2022/07/15 02:36:07;;;;;;;1.63;1.13;;;13.00;99.90;;;;;;5011797;28;20427;-73
2022/07/15 02:38:33;;;;;;;2.20;1.17;;;12.90;99.90;;;;;;5011999;28;20477;-73
2022/07/15 02:40:58;;;;;;;1.67;1.00;;;12.80;99.90;;;;;;5012099;28;20164;-73
2022/07/15 02:43:24;;;;;;;2.40;1.10;;;12.90;99.90;;;;;;5011904;28;20204;-73
2022/07/15 02:45:49;;;;;;;1.20;0.90;;;13.00;99.90;;;;;;5011873;28;20700;-73
2022/07/15 02:48:15;;;;;;;2.50;1.10;;;13.00;99.90;;;;;;5012001;28;20346;-73
2022/07/15 02:50:41;;;;;;;5.03;1.33;;;12.80;99.90;;;;;;5011962;28;20168;-72
2022/07/15 02:53:07;;;;;;;0.97;0.87;;;12.90;99.90;;;;;;5012356;28;20172;-73
2022/07/15 02:55:32;;;;;;;1.40;1.17;;;12.90;99.90;;;;;;5011846;28;21000;-72
2022/07/15 02:57:58;;;;;;;1.70;1.20;;;12.90;99.90;;;;;;4975114;28;1090659;-73
2022/07/15 03:00:24;;;;;;;1.47;1.37;;;12.90;99.90;;;;;;5012658;28;20510;-73
2022/07/15 03:02:50;;;;;;;4.57;1.43;;;12.80;99.90;;;;;;5012537;28;20203;-73
2022/07/15 03:05:17;;;;;;;1.23;1.10;;;12.80;99.90;;;;;;5012813;28;20654;-73
2022/07/15 03:07:43;;;;;;;4.60;1.70;;;12.80;99.90;;;;;;5013627;28;20866;-75
2022/07/15 03:10:10;;;;;;;1.80;0.90;;;12.80;99.90;;;;;;5014322;28;20473;-75
2022/07/15 03:12:35;;;;;;;2.10;1.10;;;12.90;99.90;;;;;;5013494;28;20415;-73
2022/07/15 03:15:02;;;;;;;2.80;1.37;;;12.90;99.90;;;;;;5014159;28;20408;-75
2022/07/15 03:17:28;;;;;;;2.83;1.33;;;12.80;99.90;;;;;;5013463;28;20481;-74
2022/07/15 03:19:57;;;;;;;1.77;1.00;;;12.80;99.90;;;;;;5012912;28;20407;-71
2022/07/15 03:22:24;;;;;;;1.30;1.07;;;12.80;99.90;;;;;;5011953;28;20458;-72
2022/07/15 03:24:50;;;;;;;1.43;1.20;;;12.80;99.90;;;;;;5010685;28;20411;-73
2022/07/15 03:27:16;;;;;;;2.17;1.20;;;12.80;99.90;;;;;;5012144;28;20886;-73
2022/07/15 03:29:43;;;;;;;2.10;1.90;;;12.80;99.90;;;;;;5012022;28;20410;-74
2022/07/15 03:32:10;;;;;;;2.70;1.40;;;12.80;99.90;;;;;;5012223;28;20442;-73
2022/07/15 03:34:35;;;;;;;1.50;1.20;;;12.80;99.90;;;;;;5011948;28;20411;-73
2022/07/15 03:37:01;;;;;;;1.80;1.10;;;12.80;99.90;;;;;;5011993;28;20988;-72
2022/07/15 03:39:26;;;;;;;1.47;1.10;;;12.80;99.90;;;;;;5012405;28;20179;-73
2022/07/15 03:41:52;;;;;;;3.17;1.50;;;12.80;99.90;;;;;;5011805;28;20517;-73
2022/07/15 03:44:18;;;;;;;1.10;1.00;;;12.80;99.90;;;;;;5011656;28;20200;-75
2022/07/15 03:46:47;;;;;;;4.23;1.80;;;12.90;99.90;;;;;;5011997;28;20261;-72
2022/07/15 03:49:15;;;;;;;3.37;1.73;;;12.90;99.90;;;;;;5012062;28;20208;-72
2022/07/15 03:51:42;;;;;;;2.70;1.17;;;12.90;99.90;;;;;;5011852;28;20465;-72
2022/07/15 03:54:07;;;;;;;3.07;1.33;;;12.90;99.90;;;;;;5011844;28;20498;-72
2022/07/15 03:56:33;;;;;;;1.47;0.90;;;12.90;99.90;;;;;;5011454;28;20521;-72
2022/07/15 03:58:59;;;;;;;5.03;1.40;;;13.00;99.90;;;;;;5011730;28;20187;-73
2022/07/15 04:01:25;;;;;;;3.23;1.50;;;13.10;99.90;;;;;;5011729;28;20407;-73
2022/07/15 04:03:52;;;;;;;1.77;0.90;;;13.10;99.90;;;;;;5011552;28;20196;-73
2022/07/15 04:06:19;;;;;;;5.37;1.30;;;13.20;99.90;;;;;;5011711;28;20434;-73
2022/07/15 04:08:45;;;;;;;3.53;1.23;;;13.30;99.90;;;;;;5011700;28;20832;-73
2022/07/15 04:11:11;;;;;;;1.90;1.10;;;13.40;99.90;;;;;;5011841;28;20403;-73
2022/07/15 04:13:37;;;;;;;2.03;1.17;;;13.60;99.90;;;;;;5011528;28;20263;-73
2022/07/15 04:16:04;;;;;;;3.57;1.47;;;13.60;99.90;;;;;;5009997;28;20521;-72
2022/07/15 04:18:29;;;;;;;2.70;1.10;;;13.60;99.90;;;;;;5011953;28;20418;-72
2022/07/15 04:20:55;;;;;;;1.83;0.93;;;13.80;99.90;;;;;;5011319;28;20898;-73
2022/07/15 04:23:21;;;;;;;1.73;1.00;;;13.70;99.90;;;;;;5011656;28;20251;-73
2022/07/15 04:25:46;;;;;;;1.37;1.00;;;13.70;99.90;;;;;;5011431;28;20306;-72
2022/07/15 04:28:12;;;;;;;2.83;1.17;;;13.70;99.90;;;;;;5011514;28;20658;-72
2022/07/15 04:30:37;;;;;;;1.83;1.20;;;13.80;99.90;;;;;;5014377;28;20251;-72
2022/07/15 04:33:03;;;;;;;1.93;1.40;;;13.80;99.90;;;;;;5015247;28;20178;-72
2022/07/15 04:35:29;;;;;;;3.10;1.40;;;13.70;99.90;;;;;;5015286;28;20624;-72
2022/07/15 04:37:55;;;;;;;3.07;1.30;;;13.70;99.90;;;;;;5015147;28;20291;-72
2022/07/15 04:40:20;;;;;;;1.10;1.00;;;13.60;99.90;;;;;;5015112;28;20176;-72
2022/07/15 04:42:46;;;;;;;4.10;1.33;;;13.60;99.90;;;;;;5015125;28;20447;-73
2022/07/15 04:45:12;;;;;;;1.77;1.07;;;13.50;99.90;;;;;;5015534;28;20592;-73
2022/07/15 04:47:37;;;;;;;4.20;1.60;;;13.60;99.90;;;;;;5015275;28;20211;-73
2022/07/15 04:52:48;;;;;;;1.30;1.07;;;13.90;99.90;;;;;;5015750;28;20741;-73
2022/07/15 04:55:14;;;;;;;1.50;1.10;;;14.10;99.90;;;;;;5015187;28;20411;-73
2022/07/15 04:57:41;;;;;;;1.27;1.13;;;14.30;99.90;;;;;;5014715;28;20502;-73
2022/07/15 05:00:08;;;;;;;2.60;1.17;;;14.40;99.90;;;;;;5014818;28;20410;-72
2022/07/15 05:02:34;;;;;;;4.10;1.10;;;14.40;99.90;;;;;;5014601;28;20545;-72
2022/07/15 05:05:00;;;;;;;5.03;1.43;;;14.70;99.90;;;;;;5014560;28;20662;-72
2022/07/15 05:07:25;;;;;;;2.30;1.10;;;14.60;99.90;;;;;;5014502;28;20423;-72
2022/07/15 05:09:51;;;;;;;2.60;1.00;;;14.80;99.90;;;;;;5014612;28;20165;-72
2022/07/15 05:12:17;;;;;;;3.90;1.23;;;14.70;99.90;;;;;;5013276;28;20268;-72
2022/07/15 05:14:42;;;;;;;2.40;1.50;;;14.80;99.90;;;;;;5014216;28;20176;-72
2022/07/15 05:17:08;;;;;;;2.50;1.07;;;14.60;99.90;;;;;;5014707;28;20438;-73
2022/07/15 05:19:34;;;;;;;2.10;1.20;;;14.90;99.90;;;;;;5014448;28;20546;-72
2022/07/15 05:22:00;;;;;;;3.23;1.20;;;15.00;99.90;;;;;;5014278;28;20404;-72
2022/07/15 05:24:26;;;;;;;0.93;0.83;;;15.80;99.90;;;;;;5014731;28;20166;-71
2022/07/15 05:26:51;;;;;;;1.97;1.03;;;15.60;99.90;;;;;;5014121;28;20425;-72
2022/07/15 05:29:17;;;;;;;2.07;1.80;;;15.80;99.90;;;;;;5014020;28;20167;-72
2022/07/15 05:31:43;;;;;;;1.03;0.93;;;16.20;99.90;;;;;;5014187;28;20190;-72
2022/07/15 05:34:09;;;;;;;1.00;0.90;;;16.30;99.90;;;;;;5014252;28;20177;-73
2022/07/15 05:36:34;;;;;;;2.63;1.13;;;16.10;99.90;;;;;;5014205;28;20505;-71
2022/07/15 05:39:00;;;;;;;5.33;1.33;;;16.20;99.90;;;;;;5014352;28;20461;-71
2022/07/15 05:41:26;;;;;;;3.13;1.67;;;16.40;99.90;;;;;;5012928;28;20168;-72
2022/07/15 05:43:52;;;;;;;2.80;0.90;;;17.20;99.90;;;;;;5014145;28;20631;-72
2022/07/15 05:46:17;;;;;;;1.27;0.90;;;17.40;99.90;;;;;;5013959;28;20224;-72
2022/07/15 05:48:43;;;;;;;3.47;0.87;;;17.80;99.90;;;;;;5014443;28;20445;-74
2022/07/15 05:51:08;;;;;;;2.00;1.03;;;18.20;99.90;;;;;;5014656;28;20170;-74
2022/07/15 05:53:34;;;;;;;1.80;0.80;;;17.80;99.90;;;;;;5014006;28;20256;-72
2022/07/15 05:55:59;;;;;;;3.83;1.73;;;17.50;99.90;;;;;;5013575;28;20203;-72
2022/07/15 05:58:25;;;;;;;3.30;1.50;;;18.50;99.90;;;;;;5013676;28;20177;-71
2022/07/15 06:00:52;;;;;;;1.90;0.90;;;18.00;99.90;;;;;;5012394;28;20173;-72
2022/07/15 06:03:18;;;;;;;1.63;0.90;;;18.20;99.90;;;;;;5013472;28;20962;-72
2022/07/15 06:05:43;;;;;;;4.33;0.90;;;18.70;99.90;;;;;;5013271;28;20415;-73
2022/07/15 06:08:10;;;;;;;1.27;0.90;;;18.70;99.90;;;;;;5014545;28;20173;-72
2022/07/15 06:10:36;;;;;;;2.03;1.30;;;18.60;99.90;;;;;;5013527;28;20216;-74
2022/07/15 06:13:03;;;;;;;3.80;1.30;;;17.90;99.90;;;;;;5013237;28;20868;-73
2022/07/15 06:15:29;;;;;;;1.77;0.90;;;18.40;99.90;;;;;;5013441;28;20915;-74
2022/07/15 06:17:56;;;;;;;0.77;0.60;;;18.70;99.90;;;;;;5012096;28;20515;-72
2022/07/15 06:20:22;;;;;;;1.53;0.73;;;18.20;99.90;;;;;;5013408;28;20412;-72
2022/07/15 06:22:48;;;;;;;0.73;0.70;;;18.10;99.90;;;;;;5013305;28;20971;-72
2022/07/15 06:25:13;;;;;;;0.90;0.77;;;18.30;99.90;;;;;;5011799;28;20417;-72
2022/07/15 06:27:39;;;;;;;3.13;0.90;;;18.80;99.90;;;;;;5013202;28;20436;-73
2022/07/15 06:30:06;;;;;;;1.07;0.60;;;18.40;99.90;;;;;;5011933;28;20272;-72
2022/07/15 06:32:31;;;;;;;2.20;0.70;;;17.70;99.90;;;;;;5013424;28;20173;-73
2022/07/15 06:34:57;;;;;;;0.70;0.63;;;17.80;99.90;;;;;;5013031;28;20486;-73
2022/07/15 06:37:22;;;;;;;1.80;0.80;;;17.90;99.90;;;;;;5012871;28;20194;-73
2022/07/15 06:39:48;;;;;;;1.63;0.80;;;18.10;99.90;;;;;;5013006;28;20165;-73
2022/07/15 06:42:14;;;;;;;1.50;1.23;;;17.70;99.90;;;;;;5013032;28;20191;-73
2022/07/15 06:44:39;;;;;;;1.53;0.80;;;17.60;99.90;;;;;;5013116;28;20164;-73
2022/07/15 06:47:06;;;;;;;2.67;1.00;;;17.40;99.90;;;;;;5012961;28;20552;-73
2022/07/15 06:49:34;;;;;;;4.20;0.87;;;17.30;99.90;;;;;;5013465;28;20161;-72
2022/07/15 06:52:00;;;;;;;3.03;1.20;;;17.50;99.90;;;;;;5012478;28;20454;-73
2022/07/15 06:54:25;;;;;;;1.83;0.80;;;18.10;99.90;;;;;;5012759;28;20894;-73
2022/07/15 06:56:51;;;;;;;4.93;1.63;;;18.30;99.90;;;;;;5034805;23;20607;-66
2022/07/15 06:59:16;;;;;;;1.37;1.27;;;18.90;99.90;;;;;;5011717;28;20172;-65
2022/07/15 07:01:42;;;;;;;2.40;1.40;;;18.40;99.90;;;;;;5011734;28;20266;-65
2022/07/15 07:04:07;;;;;;;1.20;0.80;;;18.60;99.90;;;;;;5011518;28;20257;-65
2022/07/15 07:06:34;;;;;;;2.70;1.97;;;18.00;99.90;;;;;;5011501;28;20183;-65
2022/07/15 07:08:59;;;;;;;1.43;0.70;;;18.10;99.90;;;;;;5011468;28;20631;-65
2022/07/15 07:11:25;;;;;;;3.23;0.90;;;18.90;99.90;;;;;;5011270;28;20412;-66
2022/07/15 07:13:52;;;;;;;3.03;1.20;;;19.10;99.90;;;;;;5011203;28;20183;-65
2022/07/15 07:16:18;;;;;;;1.40;0.77;;;19.10;99.90;;;;;;5011014;28;20480;-65
2022/07/15 07:18:47;;;;;;;2.73;1.33;;;19.10;99.90;;;;;;5011390;28;20401;-65
2022/07/15 07:21:13;;;;;;;3.20;0.80;;;18.60;99.90;;;;;;5011078;28;20421;-65
2022/07/15 07:23:39;;;;;;;1.47;1.10;;;18.10;99.90;;;;;;5010878;28;20445;-65
2022/07/15 07:26:06;;;;;;;1.00;0.77;;;18.10;99.90;;;;;;5010802;28;20424;-65
2022/07/15 07:28:32;;;;;;;1.03;0.70;;;18.90;99.90;;;;;;5011080;28;20169;-66
2022/07/15 07:30:58;;;;;;;3.80;1.47;;;19.30;99.90;;;;;;5011296;28;20502;-65
2022/07/15 07:33:24;;;;;;;3.10;0.87;;;18.90;99.90;;;;;;5011223;28;20418;-65
2022/07/15 07:35:50;;;;;;;1.63;0.80;;;18.30;99.90;;;;;;5010876;28;20497;-65
2022/07/15 07:38:15;;;;;;;1.07;0.97;;;18.00;99.90;;;;;;5010980;28;20219;-65
2022/07/15 07:40:41;;;;;;;0.90;0.80;;;18.00;99.90;;;;;;5010898;28;20269;-65
2022/07/15 07:43:06;;;;;;;1.97;0.83;;;17.80;99.90;;;;;;5010685;28;20196;-64
2022/07/15 07:45:32;;;;;;;3.33;0.70;;;18.20;99.90;;;;;;5010810;28;20286;-64
2022/07/15 07:47:58;;;;;;;1.40;0.93;;;19.10;99.90;;;;;;5010748;28;20181;-64
2022/07/15 07:50:23;;;;;;;1.50;0.70;;;19.80;99.90;;;;;;5010965;28;20236;-64
2022/07/15 07:52:49;;;;;;;1.10;0.60;;;20.40;99.90;;;;;;5010753;28;20181;-64
2022/07/15 07:55:15;;;;;;;2.20;0.87;;;20.10;99.90;;;;;;5010569;28;20584;-64
2022/07/15 07:57:52;;;;;;;2.60;1.23;;;19.50;99.90;;;;;;5010558;28;20225;-64
2022/07/15 08:00:18;;;;;;;0.93;0.70;;;19.10;99.90;;;;;;5010742;28;20539;-64
2022/07/15 08:02:45;;;;;;;0.90;0.70;;;19.50;99.90;;;;;;5010404;28;20447;-64
2022/07/15 08:05:11;;;;;;;1.33;0.90;;;19.20;99.90;;;;;;5012891;28;20448;-63
2022/07/15 08:07:37;;;;;;;3.10;0.80;;;19.10;99.90;;;;;;5014891;28;20435;-65
2022/07/15 08:10:04;;;;;;;1.20;0.80;;;19.00;99.90;;;;;;5014707;28;20407;-65
2022/07/15 08:12:29;;;;;;;1.23;0.77;;;19.20;99.90;;;;;;5014832;28;20778;-64
2022/07/15 08:14:55;;;;;;;1.30;0.60;;;19.20;99.90;;;;;;5014535;28;20431;-65
2022/07/15 08:17:22;;;;;;;1.83;0.70;;;19.80;99.90;;;;;;5014514;28;20199;-66
2022/07/15 08:19:48;;;;;;;1.67;0.80;;;19.70;99.90;;;;;;5014669;28;20583;-64
2022/07/15 08:22:14;;;;;;;1.00;0.80;;;19.60;98.00;;;;;;5014394;28;20988;-63
2022/07/15 08:24:40;;;;;;;1.27;0.77;;;18.60;98.30;;;;;;5014250;28;20584;-64
2022/07/15 08:27:06;;;;;;;1.60;1.33;;;18.90;98.50;;;;;;5014386;28;20197;-64
2022/07/15 08:29:31;;;;;;;0.97;0.97;;;18.00;99.50;;;;;;5014403;28;20408;-65
2022/07/15 08:31:57;;;;;;;1.53;0.67;;;18.10;99.90;;;;;;5014357;28;20259;-64
2022/07/15 08:34:23;;;;;;;1.73;0.80;;;18.70;99.90;;;;;;5014555;28;20169;-65
2022/07/15 08:36:48;;;;;;;1.97;1.00;;;18.80;99.60;;;;;;5014852;28;20583;-65
2022/07/15 08:39:15;;;;;;;1.30;0.73;;;18.50;99.10;;;;;;5014432;28;20197;-64
2022/07/15 08:41:41;;;;;;;2.30;1.17;;;18.90;99.40;;;;;;5014298;28;20414;-64
2022/07/15 08:44:07;;;;;;;0.60;0.53;;;19.20;97.70;;;;;;5014109;28;20448;-65
2022/07/15 08:46:33;;;;;;;2.23;0.93;;;19.90;96.90;;;;;;5013874;28;20204;-64
2022/07/15 08:49:07;;;;;;;2.70;1.00;;;20.20;95.60;;;;;;5014025;28;20244;-64
2022/07/15 08:51:37;;;;;;;1.47;0.90;;;19.90;95.60;;;;;;5013895;28;20768;-65
2022/07/15 08:54:02;;;;;;;1.10;0.70;;;19.70;95.60;;;;;;5014042;28;20953;-64
2022/07/15 08:56:28;;;;;;;1.00;0.90;;;19.10;96.80;;;;;;5012461;28;20566;-64
2022/07/15 08:58:55;;;;;;;0.90;0.70;;;19.20;96.30;;;;;;5013880;28;20175;-65
2022/07/15 09:01:20;;;;;;;2.33;1.00;;;19.40;96.60;;;;;;5013722;28;20414;-64
2022/07/15 09:03:46;;;;;;;3.07;0.80;;;19.30;96.50;;;;;;5013685;28;20444;-64
2022/07/15 09:06:31;;;;;;;2.00;1.13;;;19.10;96.90;;;;;;5013343;28;20179;-65
2022/07/15 09:08:56;;;;;;;0.97;0.70;;;19.10;97.20;;;;;;5013336;28;20167;-65
2022/07/15 09:11:27;;;;;;;1.60;0.73;;;19.10;97.90;;;;;;5013291;28;20462;-65
2022/07/15 09:13:53;;;;;;;3.63;0.80;;;19.70;97.30;;;;;;5013380;28;20226;-65
2022/07/15 09:16:23;;;;;;;1.10;0.77;;;19.60;97.10;;;;;;5012632;28;20824;-65
2022/07/15 09:18:50;;;;;;;2.20;1.00;;;19.50;97.30;;;;;;5013393;28;20282;-65
2022/07/15 09:21:25;;;;;;;1.80;1.00;;;19.60;97.60;;;;;;5013004;28;20484;-65
2022/07/15 09:23:53;;;;;;;1.13;0.93;;;19.40;97.90;;;;;;5012989;28;20458;-65
2022/07/15 09:26:23;;;;;;;1.53;0.90;;;19.30;96.60;;;;;;5012963;28;20812;-65
2022/07/15 09:28:50;;;;;;;1.60;0.93;;;18.60;98.20;;;;;;5013030;28;20413;-65
2022/07/15 09:34:22;;;;;;;4.13;1.10;;;19.00;98.80;;;;;;5013421;28;20968;-64
2022/07/15 09:36:54;;;;;;;3.70;0.70;;;19.50;98.70;;;;;;5013050;28;20436;-64
2022/07/15 09:39:21;;;;;;;1.00;0.73;;;18.80;97.50;;;;;;5013271;28;20509;-65
2022/07/15 09:41:48;;;;;;;2.20;0.90;;;18.40;98.40;;;;;;5013222;28;20408;-65
2022/07/15 09:44:21;;;;;;;1.10;0.63;;;19.10;98.40;;;;;;5013044;28;20507;-65
2022/07/15 09:46:57;;;;;;;3.00;0.80;;;19.60;97.90;;;;;;5013307;28;20416;-65
2022/07/15 09:49:22;;;;;;;1.93;0.80;;;20.30;96.80;;;;;;5013332;28;20833;-65
2022/07/15 09:52:09;;;;;;;0.80;0.70;;;19.30;96.50;;;;;;5013068;28;20410;-64
2022/07/15 09:54:38;;;;;;;2.80;0.93;;;19.90;97.30;;;;;;5013078;28;20171;-65
2022/07/15 09:57:07;;;;;;;1.00;0.80;;;19.90;96.50;;;;;;5012813;28;20454;-65
2022/07/15 09:59:33;;;;;;;3.50;0.80;;;20.50;95.80;;;;;;5012965;28;20421;-64
2022/07/15 10:01:59;;;;;;;0.87;0.70;;;20.10;94.90;;;;;;5013480;28;20410;-64
2022/07/15 10:04:27;;;;;;;1.63;0.60;;;20.00;95.90;;;;;;5012875;28;20217;-64
2022/07/15 10:06:54;;;;;;;1.10;0.93;;;20.10;95.70;;;;;;5012570;28;20461;-65
2022/07/15 10:09:22;;;;;;;4.20;1.10;;;20.50;95.50;;;;;;5012721;28;20467;-65
2022/07/15 10:11:56;;;;;;;2.30;0.80;;;21.40;94.30;;;;;;5012465;28;20829;-65
2022/07/15 10:14:32;;;;;;;1.53;0.90;;;21.20;93.20;;;;;;5012416;28;20426;-65
2022/07/15 10:17:45;;;;;;;1.60;0.80;;;21.50;93.60;;;;;;5012827;28;20520;-64
2022/07/15 10:20:19;;;;;;;1.90;0.70;;;21.10;92.30;;;;;;4932939;29;20426;-64
2022/07/15 10:23:16;;;;;;;0.93;0.70;;;20.30;94.50;;;;;;4932800;29;20574;-64
2022/07/15 10:25:52;;;;;;;1.57;0.97;;;20.30;93.10;;;;;;4991238;28;20428;-64
2022/07/15 10:28:47;;;;;;;0.70;0.60;;;19.40;94.80;;;;;;5011511;28;20396;-64
2022/07/15 10:31:34;;;;;;;2.73;1.20;;;19.30;94.30;;;;;;5012334;28;20857;-64
2022/07/15 10:34:02;;;;;;;1.47;0.73;;;19.80;94.10;;;;;;5011505;28;20437;-65
2022/07/15 10:36:40;;;;;;;1.20;0.70;;;20.20;93.90;;;;;;5011875;28;20438;-64
2022/07/15 10:39:08;;;;;;;0.70;0.70;;;20.40;93.70;;;;;;5012035;28;20416;-64
2022/07/15 10:41:52;;;;;;;0.70;0.60;;;20.20;92.60;;;;;;5011868;28;20405;-63
2022/07/15 10:44:18;;;;;;;1.23;0.77;;;20.00;93.00;;;;;;5011758;28;20449;-65
2022/07/15 10:46:44;;;;;;;1.20;0.80;;;19.70;93.30;;;;;;5011985;28;20425;-64
2022/07/15 10:49:09;;;;;;;2.60;0.83;;;19.90;93.70;;;;;;5011937;28;20403;-64
2022/07/15 10:51:35;;;;;;;1.77;0.93;;;20.20;93.40;;;;;;5011864;28;20637;-64
2022/07/15 10:54:06;;;;;;;3.17;0.70;;;19.60;94.00;;;;;;5011801;28;20704;-65
2022/07/15 10:56:41;;;;;;;1.23;0.77;;;19.70;94.50;;;;;;5011488;28;20242;-65
2022/07/15 10:59:11;;;;;;;1.03;0.77;;;20.40;93.50;;;;;;5011854;28;20411;-64
2022/07/15 11:01:38;;;;;;;2.30;0.80;;;20.20;93.40;;;;;;5012214;28;20965;-65
2022/07/15 11:04:17;;;;;;;2.70;0.90;;;20.30;93.00;;;;;;5011640;28;20450;-65
2022/07/15 11:07:02;;;;;;;0.93;0.63;;;20.80;92.90;;;;;;5011517;28;20435;-65
2022/07/15 11:09:45;;;;;;;1.30;0.90;;;21.00;92.00;;;;;;5011564;28;20412;-65
2022/07/15 11:12:11;;;;;;;0.90;0.80;;;20.40;92.10;;;;;;5011409;28;20408;-64
2022/07/15 11:14:45;;;;;;;0.97;0.87;;;20.20;91.30;;;;;;5011650;28;20400;-65
2022/07/15 11:17:12;;;;;;;1.57;0.73;;;21.00;91.30;;;;;;5011687;28;20426;-66
2022/07/15 11:19:38;;;;;;;1.53;1.07;;;20.50;92.00;;;;;;5011456;28;20538;-65
2022/07/15 11:22:07;;;;;;;2.60;0.83;;;20.50;91.60;;;;;;5011514;28;20410;-65
2022/07/15 11:24:35;;;;;;;0.90;0.80;;;20.20;92.10;;;;;;5011336;28;20450;-64
2022/07/15 11:27:01;;;;;;;0.80;0.60;;;20.60;91.00;;;;;;5011321;28;20431;-64
2022/07/15 11:29:39;;;;;;;4.10;0.90;;;20.10;90.30;;;;;;5011353;28;20411;-64
2022/07/15 11:32:07;;;;;;;1.73;0.77;;;20.20;91.00;;;;;;5011557;28;20227;-64
2022/07/15 11:34:41;;;;;;;1.87;1.03;;;20.70;91.40;;;;;;5011112;28;20423;-65
2022/07/15 11:37:07;;;;;;;1.73;0.73;;;20.20;90.70;;;;;;5011373;28;20523;-64
2022/07/15 11:39:33;;;;;;;2.00;1.10;;;20.50;90.90;;;;;;5011144;28;20427;-64
2022/07/15 11:44:47;;;;;;;4.40;1.00;;;20.10;91.40;;;;;;5010963;28;20227;-65
2022/07/15 11:47:13;;;;;;;2.30;0.93;;;20.40;92.40;;;;;;5010859;28;20421;-65
2022/07/15 11:49:43;;;;;;;3.13;0.80;;;19.90;92.10;;;;;;5010919;28;20435;-65
2022/07/15 11:52:11;;;;;;;2.17;0.90;;;20.00;92.80;;;;;;5009452;28;20433;-65
2022/07/15 11:54:39;;;;;;;0.83;0.70;;;20.50;91.90;;;;;;5010754;28;20401;-64
2022/07/15 11:57:07;;;;;;;1.40;1.30;;;20.40;92.40;;;;;;5010452;28;20452;-64
2022/07/15 11:59:34;;;;;;;0.80;0.63;;;21.00;91.00;;;;;;5010802;28;20441;-64
2022/07/15 12:02:11;;;;;;;1.53;0.97;;;20.20;91.40;;;;;;5010580;28;20410;-65
2022/07/15 12:04:38;;;;;;;1.80;1.40;;;20.20;91.80;;;;;;5010534;28;20419;-63
2022/07/15 12:07:04;;;;;;;2.10;0.87;;;19.90;92.40;;;;;;5010798;28;20801;-64
2022/07/15 12:09:43;;;;;;;3.87;1.40;;;19.90;93.10;;;;;;5010577;28;20526;-64
2022/07/15 12:12:10;;;;;;;2.20;0.87;;;20.40;92.20;;;;;;5010664;28;20485;-64
2022/07/15 12:14:36;;;;;;;2.60;0.97;;;20.30;92.20;;;;;;5011350;28;20417;-64
2022/07/15 12:17:03;;;;;;;1.20;1.00;;;20.20;92.30;;;;;;5010681;28;20426;-64
2022/07/15 12:19:30;;;;;;;0.90;0.70;;;20.50;92.20;;;;;;5010662;28;20468;-64
2022/07/15 12:22:14;;;;;;;1.13;1.03;;;20.90;92.20;;;;;;5010484;28;20405;-64
2022/07/15 12:24:43;;;;;;;3.17;1.13;;;21.20;90.90;;;;;;5010572;28;20489;-64
2022/07/15 12:27:10;;;;;;;1.30;1.00;;;21.60;90.60;;;;;;5010582;28;20898;-64
2022/07/15 12:29:35;;;;;;;1.57;0.97;;;22.20;87.60;;;;;;5010664;28;20403;-64
2022/07/15 12:32:05;;;;;;;1.10;0.70;;;21.80;85.60;;;;;;5010380;28;20428;-64
2022/07/15 12:34:46;;;;;;;1.87;0.90;;;21.40;86.10;;;;;;5010371;28;20425;-64
2022/07/15 12:37:13;;;;;;;1.27;0.80;;;21.30;88.40;;;;;;5009011;28;20830;-64
2022/07/15 12:40:11;;;;;;;0.90;0.60;;;21.00;87.00;;;;;;5010587;28;20401;-64
2022/07/15 12:42:41;;;;;;;1.37;0.90;;;20.50;87.50;;;;;;5010263;28;20594;-64
2022/07/15 12:45:15;;;;;;;0.83;0.73;;;20.10;89.40;;;;;;5010309;28;20478;-64
2022/07/15 12:48:03;;;;;;;0.80;0.70;;;20.10;90.10;;;;;;5010250;28;20429;-64
2022/07/15 12:50:49;;;;;;;0.90;0.80;;;19.80;90.30;;;;;;5011812;28;20409;-64
2022/07/15 12:53:15;;;;;;;4.43;0.93;;;20.30;90.70;;;;;;5000525;28;20785;-64
2022/07/15 12:55:47;;;;;;;1.23;0.83;;;20.80;90.50;;;;;;5013914;28;20404;-65
2022/07/15 12:58:15;;;;;;;1.80;0.80;;;20.70;90.40;;;;;;5037520;23;20495;-73
2022/07/15 13:00:42;;;;;;;1.33;1.00;;;21.10;90.50;;;;;;5015487;28;21024;-72
2022/07/15 13:03:19;;;;;;;3.37;0.80;;;21.50;90.10;;;;;;5015333;28;20451;-72